sensor_id;sensor_type;location;lat;lon;timestamp;P1;durP1;ratioP1;P2;durP2;ratioP2
6868;SDS011;3473;42.604;23.496;2023-04-15T05:49:08;6.43;;;3.33;;
6868;SDS011;3473;42.604;23.496;2023-04-15T05:50:39;7.37;;;3.13;;
6868;SDS011;3473;42.604;23.496;2023-04-15T05:52:11;5.90;;;3.20;;
6868;SDS011;3473;42.604;23.496;2023-04-15T05:53:42;5.20;;;2.87;;
6868;SDS011;3473;42.604;23.496;2023-04-15T05:55:15;5.43;;;2.53;;
6868;SDS011;3473;42.604;23.496;2023-04-15T05:56:46;7.63;;;3.03;;
6868;SDS011;3473;42.604;23.496;2023-04-15T05:58:18;4.33;;;2.33;;
6868;SDS011;3473;42.604;23.496;2023-04-15T05:59:49;5.37;;;2.73;;
6868;SDS011;3473;42.604;23.496;2023-04-15T06:01:21;4.87;;;2.57;;
6868;SDS011;3473;42.604;23.496;2023-04-15T06:02:53;10.10;;;2.87;;
6868;SDS011;3473;42.604;23.496;2023-04-15T06:04:28;6.53;;;3.00;;
6868;SDS011;3473;42.604;23.496;2023-04-15T06:06:00;5.53;;;2.90;;
6868;SDS011;3473;42.604;23.496;2023-04-15T06:07:31;3.97;;;2.50;;
6868;SDS011;3473;42.604;23.496;2023-04-15T06:09:03;3.63;;;2.40;;
6868;SDS011;3473;42.604;23.496;2023-04-15T06:10:34;3.77;;;2.10;;
6868;SDS011;3473;42.604;23.496;2023-04-15T06:12:06;3.37;;;1.93;;
6868;SDS011;3473;42.604;23.496;2023-04-15T06:13:41;3.93;;;2.30;;
6868;SDS011;3473;42.604;23.496;2023-04-15T06:15:12;4.40;;;2.33;;
6868;SDS011;3473;42.604;23.496;2023-04-15T06:16:44;5.57;;;2.87;;
6868;SDS011;3473;42.604;23.496;2023-04-15T06:18:15;3.73;;;2.13;;
6868;SDS011;3473;42.604;23.496;2023-04-15T06:19:48;3.87;;;2.00;;
6868;SDS011;3473;42.604;23.496;2023-04-15T06:21:24;4.27;;;2.10;;
6868;SDS011;3473;42.604;23.496;2023-04-15T06:22:56;6.10;;;3.00;;
6868;SDS011;3473;42.604;23.496;2023-04-15T06:24:27;5.70;;;3.43;;
6868;SDS011;3473;42.604;23.496;2023-04-15T06:25:59;4.07;;;2.80;;
6868;SDS011;3473;42.604;23.496;2023-04-15T06:27:30;6.50;;;3.20;;
6868;SDS011;3473;42.604;23.496;2023-04-15T06:29:02;7.20;;;2.90;;
6868;SDS011;3473;42.604;23.496;2023-04-15T06:30:33;5.43;;;2.40;;
6868;SDS011;3473;42.604;23.496;2023-04-15T06:32:05;4.70;;;2.47;;
6868;SDS011;3473;42.604;23.496;2023-04-15T06:33:37;16.73;;;5.27;;
6868;SDS011;3473;42.604;23.496;2023-04-15T06:35:26;7.87;;;3.10;;
6868;SDS011;3473;42.604;23.496;2023-04-15T06:36:57;3.70;;;2.10;;
6868;SDS011;3473;42.604;23.496;2023-04-15T06:38:29;1.97;;;1.47;;
6868;SDS011;3473;42.604;23.496;2023-04-15T06:40:01;2.30;;;1.53;;
6868;SDS011;3473;42.604;23.496;2023-04-15T06:41:34;2.93;;;1.60;;
6868;SDS011;3473;42.604;23.496;2023-04-15T06:43:06;2.37;;;1.73;;
6868;SDS011;3473;42.604;23.496;2023-04-15T06:44:38;2.73;;;1.73;;
6868;SDS011;3473;42.604;23.496;2023-04-15T06:46:09;3.40;;;1.93;;
6868;SDS011;3473;42.604;23.496;2023-04-15T06:47:41;1.97;;;1.40;;
6868;SDS011;3473;42.604;23.496;2023-04-15T06:49:12;2.03;;;1.40;;
6868;SDS011;3473;42.604;23.496;2023-04-15T06:50:45;3.10;;;1.30;;
6868;SDS011;3473;42.604;23.496;2023-04-15T06:52:17;2.23;;;1.33;;
6868;SDS011;3473;42.604;23.496;2023-04-15T06:53:48;5.53;;;1.43;;
6868;SDS011;3473;42.604;23.496;2023-04-15T06:55:20;1.83;;;1.37;;
6868;SDS011;3473;42.604;23.496;2023-04-15T06:56:51;4.23;;;2.37;;
6868;SDS011;3473;42.604;23.496;2023-04-15T06:58:23;5.03;;;1.97;;
6868;SDS011;3473;42.604;23.496;2023-04-15T06:59:54;3.47;;;1.33;;
6868;SDS011;3473;42.604;23.496;2023-04-15T07:01:25;1.67;;;1.27;;
6868;SDS011;3473;42.604;23.496;2023-04-15T07:02:57;1.73;;;1.40;;
6868;SDS011;3473;42.604;23.496;2023-04-15T07:04:28;3.80;;;1.50;;
6868;SDS011;3473;42.604;23.496;2023-04-15T07:06:01;2.83;;;1.50;;
6868;SDS011;3473;42.604;23.496;2023-04-15T07:07:54;3.57;;;1.87;;
6868;SDS011;3473;42.604;23.496;2023-04-15T07:09:25;2.43;;;1.50;;
6868;SDS011;3473;42.604;23.496;2023-04-15T07:10:56;2.20;;;1.50;;
6868;SDS011;3473;42.604;23.496;2023-04-15T07:12:28;2.20;;;1.60;;
6868;SDS011;3473;42.604;23.496;2023-04-15T07:13:58;7.23;;;4.00;;
6868;SDS011;3473;42.604;23.496;2023-04-15T07:15:30;5.33;;;3.20;;
6868;SDS011;3473;42.604;23.496;2023-04-15T07:17:02;3.97;;;1.80;;
6868;SDS011;3473;42.604;23.496;2023-04-15T07:18:33;3.37;;;1.50;;
6868;SDS011;3473;42.604;23.496;2023-04-15T07:20:05;4.00;;;2.20;;
6868;SDS011;3473;42.604;23.496;2023-04-15T07:21:38;2.57;;;1.73;;
6868;SDS011;3473;42.604;23.496;2023-04-15T07:23:09;2.97;;;1.50;;
6868;SDS011;3473;42.604;23.496;2023-04-15T07:24:41;3.83;;;1.90;;
6868;SDS011;3473;42.604;23.496;2023-04-15T07:26:13;2.37;;;1.50;;
6868;SDS011;3473;42.604;23.496;2023-04-15T07:27:44;2.50;;;1.53;;
6868;SDS011;3473;42.604;23.496;2023-04-15T07:29:16;2.03;;;1.40;;
6868;SDS011;3473;42.604;23.496;2023-04-15T07:30:47;6.07;;;2.23;;
6868;SDS011;3473;42.604;23.496;2023-04-15T07:32:19;3.30;;;2.10;;
6868;SDS011;3473;42.604;23.496;2023-04-15T07:33:50;3.73;;;2.17;;
6868;SDS011;3473;42.604;23.496;2023-04-15T07:35:22;6.87;;;1.90;;
6868;SDS011;3473;42.604;23.496;2023-04-15T07:36:56;4.20;;;1.63;;
6868;SDS011;3473;42.604;23.496;2023-04-15T07:38:27;2.53;;;1.57;;
6868;SDS011;3473;42.604;23.496;2023-04-15T07:39:58;2.37;;;1.47;;
6868;SDS011;3473;42.604;23.496;2023-04-15T07:41:30;2.47;;;1.47;;
6868;SDS011;3473;42.604;23.496;2023-04-15T07:43:01;2.30;;;1.40;;
6868;SDS011;3473;42.604;23.496;2023-04-15T07:44:33;1.90;;;1.37;;
6868;SDS011;3473;42.604;23.496;2023-04-15T07:46:05;1.93;;;1.40;;
6868;SDS011;3473;42.604;23.496;2023-04-15T07:47:36;4.63;;;2.10;;
6868;SDS011;3473;42.604;23.496;2023-04-15T07:49:08;5.70;;;2.07;;
6868;SDS011;3473;42.604;23.496;2023-04-15T07:50:39;2.63;;;1.70;;
6868;SDS011;3473;42.604;23.496;2023-04-15T07:52:12;3.37;;;2.20;;
6868;SDS011;3473;42.604;23.496;2023-04-15T07:53:44;3.03;;;1.60;;
6868;SDS011;3473;42.604;23.496;2023-04-15T07:55:15;2.97;;;1.77;;
6868;SDS011;3473;42.604;23.496;2023-04-15T07:56:49;5.30;;;2.10;;
6868;SDS011;3473;42.604;23.496;2023-04-15T07:58:20;2.80;;;1.73;;
6868;SDS011;3473;42.604;23.496;2023-04-15T07:59:52;1.67;;;1.27;;
6868;SDS011;3473;42.604;23.496;2023-04-15T08:01:22;1.77;;;1.33;;
6868;SDS011;3473;42.604;23.496;2023-04-15T08:02:55;2.27;;;1.40;;
6868;SDS011;3473;42.604;23.496;2023-04-15T08:04:28;3.53;;;1.83;;
6868;SDS011;3473;42.604;23.496;2023-04-15T08:06:00;1.87;;;1.30;;
6868;SDS011;3473;42.604;23.496;2023-04-15T08:07:32;1.20;;;1.10;;
6868;SDS011;3473;42.604;23.496;2023-04-15T08:09:04;1.73;;;1.20;;
6868;SDS011;3473;42.604;23.496;2023-04-15T08:10:36;3.33;;;1.70;;
6868;SDS011;3473;42.604;23.496;2023-04-15T08:12:07;1.50;;;1.27;;
6868;SDS011;3473;42.604;23.496;2023-04-15T08:13:42;1.77;;;1.27;;
6868;SDS011;3473;42.604;23.496;2023-04-15T08:15:13;3.47;;;2.20;;
6868;SDS011;3473;42.604;23.496;2023-04-15T08:16:45;3.80;;;1.50;;
6868;SDS011;3473;42.604;23.496;2023-04-15T08:18:17;6.93;;;3.03;;
6868;SDS011;3473;42.604;23.496;2023-04-15T08:19:48;4.30;;;2.50;;
6868;SDS011;3473;42.604;23.496;2023-04-15T08:21:20;2.70;;;1.63;;
6868;SDS011;3473;42.604;23.496;2023-04-15T08:22:54;1.67;;;1.00;;
6868;SDS011;3473;42.604;23.496;2023-04-15T08:24:25;2.87;;;1.50;;
6868;SDS011;3473;42.604;23.496;2023-04-15T08:25:57;2.40;;;1.50;;
6868;SDS011;3473;42.604;23.496;2023-04-15T08:27:28;4.20;;;1.50;;
6868;SDS011;3473;42.604;23.496;2023-04-15T08:29:00;2.23;;;1.40;;
6868;SDS011;3473;42.604;23.496;2023-04-15T08:30:31;4.53;;;1.30;;
6868;SDS011;3473;42.604;23.496;2023-04-15T08:32:03;2.37;;;1.50;;
6868;SDS011;3473;42.604;23.496;2023-04-15T08:33:35;1.40;;;1.30;;
6868;SDS011;3473;42.604;23.496;2023-04-15T08:35:07;3.57;;;1.00;;
6868;SDS011;3473;42.604;23.496;2023-04-15T08:36:39;2.10;;;1.30;;
6868;SDS011;3473;42.604;23.496;2023-04-15T08:38:12;1.97;;;1.37;;
6868;SDS011;3473;42.604;23.496;2023-04-15T08:39:44;2.23;;;1.87;;
6868;SDS011;3473;42.604;23.496;2023-04-15T08:41:17;3.23;;;1.90;;
6868;SDS011;3473;42.604;23.496;2023-04-15T08:42:50;1.97;;;1.47;;
6868;SDS011;3473;42.604;23.496;2023-04-15T08:44:24;2.63;;;1.50;;
6868;SDS011;3473;42.604;23.496;2023-04-15T08:45:56;1.90;;;1.07;;
6868;SDS011;3473;42.604;23.496;2023-04-15T08:47:30;4.93;;;0.90;;
6868;SDS011;3473;42.604;23.496;2023-04-15T08:49:03;1.90;;;1.20;;
6868;SDS011;3473;42.604;23.496;2023-04-15T08:50:36;1.80;;;1.07;;
6868;SDS011;3473;42.604;23.496;2023-04-15T08:52:07;2.30;;;1.10;;
6868;SDS011;3473;42.604;23.496;2023-04-15T08:53:40;2.70;;;1.20;;
6868;SDS011;3473;42.604;23.496;2023-04-15T08:55:12;2.77;;;1.50;;
6868;SDS011;3473;42.604;23.496;2023-04-15T08:56:45;1.27;;;1.10;;
6868;SDS011;3473;42.604;23.496;2023-04-15T08:58:18;1.87;;;0.90;;
6868;SDS011;3473;42.604;23.496;2023-04-15T08:59:49;2.00;;;0.90;;
6868;SDS011;3473;42.604;23.496;2023-04-15T09:01:21;1.93;;;1.10;;
6868;SDS011;3473;42.604;23.496;2023-04-15T09:02:53;1.00;;;0.83;;
6868;SDS011;3473;42.604;23.496;2023-04-15T09:04:25;2.07;;;0.83;;
6868;SDS011;3473;42.604;23.496;2023-04-15T09:05:56;1.63;;;1.23;;
6868;SDS011;3473;42.604;23.496;2023-04-15T09:07:28;1.30;;;1.00;;
6868;SDS011;3473;42.604;23.496;2023-04-15T09:09:01;1.30;;;0.90;;
6868;SDS011;3473;42.604;23.496;2023-04-15T09:10:33;1.10;;;1.00;;
6868;SDS011;3473;42.604;23.496;2023-04-15T09:12:04;1.67;;;0.83;;
6868;SDS011;3473;42.604;23.496;2023-04-15T09:13:36;0.97;;;0.87;;
6868;SDS011;3473;42.604;23.496;2023-04-15T09:15:09;1.57;;;1.00;;
6868;SDS011;3473;42.604;23.496;2023-04-15T09:16:57;1.70;;;1.00;;
6868;SDS011;3473;42.604;23.496;2023-04-15T09:18:28;1.30;;;1.00;;
6868;SDS011;3473;42.604;23.496;2023-04-15T09:20:07;1.80;;;1.00;;
6868;SDS011;3473;42.604;23.496;2023-04-15T09:21:38;1.30;;;0.87;;
6868;SDS011;3473;42.604;23.496;2023-04-15T09:23:10;2.30;;;1.37;;
6868;SDS011;3473;42.604;23.496;2023-04-15T09:24:43;3.30;;;1.63;;
6868;SDS011;3473;42.604;23.496;2023-04-15T09:26:15;3.10;;;2.23;;
6868;SDS011;3473;42.604;23.496;2023-04-15T09:27:47;4.47;;;2.03;;
6868;SDS011;3473;42.604;23.496;2023-04-15T09:29:18;4.23;;;2.00;;
6868;SDS011;3473;42.604;23.496;2023-04-15T09:30:50;5.83;;;2.87;;
6868;SDS011;3473;42.604;23.496;2023-04-15T09:32:22;3.30;;;2.10;;
6868;SDS011;3473;42.604;23.496;2023-04-15T09:33:54;2.93;;;1.67;;
6868;SDS011;3473;42.604;23.496;2023-04-15T09:35:26;5.43;;;2.50;;
6868;SDS011;3473;42.604;23.496;2023-04-15T09:36:58;7.37;;;2.70;;
6868;SDS011;3473;42.604;23.496;2023-04-15T09:38:30;4.87;;;2.00;;
6868;SDS011;3473;42.604;23.496;2023-04-15T09:40:03;5.90;;;2.03;;
6868;SDS011;3473;42.604;23.496;2023-04-15T09:41:34;1.23;;;1.07;;
6868;SDS011;3473;42.604;23.496;2023-04-15T09:43:06;0.93;;;0.70;;
6868;SDS011;3473;42.604;23.496;2023-04-15T09:44:38;2.60;;;0.97;;
6868;SDS011;3473;42.604;23.496;2023-04-15T09:46:09;2.50;;;1.03;;
6868;SDS011;3473;42.604;23.496;2023-04-15T09:48:14;1.20;;;0.80;;
6868;SDS011;3473;42.604;23.496;2023-04-15T09:49:53;1.13;;;0.90;;
6868;SDS011;3473;42.604;23.496;2023-04-15T09:51:32;3.53;;;1.27;;
6868;SDS011;3473;42.604;23.496;2023-04-15T09:53:03;1.27;;;1.07;;
6868;SDS011;3473;42.604;23.496;2023-04-15T09:54:36;1.10;;;0.90;;
6868;SDS011;3473;42.604;23.496;2023-04-15T09:56:09;2.87;;;1.20;;
6868;SDS011;3473;42.604;23.496;2023-04-15T09:57:40;4.03;;;1.87;;
6868;SDS011;3473;42.604;23.496;2023-04-15T09:59:11;3.53;;;1.17;;
6868;SDS011;3473;42.604;23.496;2023-04-15T10:00:42;1.37;;;1.00;;
6868;SDS011;3473;42.604;23.496;2023-04-15T10:02:14;3.10;;;1.20;;
6868;SDS011;3473;42.604;23.496;2023-04-15T10:03:46;2.87;;;1.00;;
6868;SDS011;3473;42.604;23.496;2023-04-15T10:05:17;1.50;;;0.90;;
6868;SDS011;3473;42.604;23.496;2023-04-15T10:06:49;3.83;;;2.10;;
6868;SDS011;3473;42.604;23.496;2023-04-15T10:08:21;5.73;;;2.50;;
6868;SDS011;3473;42.604;23.496;2023-04-15T10:09:54;3.67;;;1.63;;
6868;SDS011;3473;42.604;23.496;2023-04-15T10:11:28;2.60;;;1.70;;
6868;SDS011;3473;42.604;23.496;2023-04-15T10:13:00;2.47;;;0.97;;
6868;SDS011;3473;42.604;23.496;2023-04-15T10:14:33;4.03;;;2.43;;
6868;SDS011;3473;42.604;23.496;2023-04-15T10:16:05;2.20;;;1.00;;
6868;SDS011;3473;42.604;23.496;2023-04-15T10:17:36;2.70;;;1.20;;
6868;SDS011;3473;42.604;23.496;2023-04-15T10:19:08;5.10;;;1.10;;
6868;SDS011;3473;42.604;23.496;2023-04-15T10:22:48;1.23;;;0.90;;
6868;SDS011;3473;42.604;23.496;2023-04-15T10:24:19;1.50;;;1.10;;
6868;SDS011;3473;42.604;23.496;2023-04-15T10:25:51;2.33;;;1.37;;
6868;SDS011;3473;42.604;23.496;2023-04-15T10:27:25;1.93;;;1.13;;
6868;SDS011;3473;42.604;23.496;2023-04-15T10:28:56;2.40;;;1.03;;
6868;SDS011;3473;42.604;23.496;2023-04-15T10:30:28;1.57;;;1.00;;
6868;SDS011;3473;42.604;23.496;2023-04-15T10:32:00;0.77;;;0.77;;
6868;SDS011;3473;42.604;23.496;2023-04-15T10:33:33;1.70;;;1.00;;
6868;SDS011;3473;42.604;23.496;2023-04-15T10:35:05;1.33;;;1.00;;
6868;SDS011;3473;42.604;23.496;2023-04-15T10:36:38;1.43;;;1.03;;
6868;SDS011;3473;42.604;23.496;2023-04-15T10:42:04;2.07;;;1.10;;
6868;SDS011;3473;42.604;23.496;2023-04-15T10:43:37;1.67;;;0.93;;
6868;SDS011;3473;42.604;23.496;2023-04-15T10:45:14;1.63;;;0.70;;
6868;SDS011;3473;42.604;23.496;2023-04-15T10:46:46;1.03;;;0.90;;
6868;SDS011;3473;42.604;23.496;2023-04-15T10:48:18;1.90;;;1.03;;
6868;SDS011;3473;42.604;23.496;2023-04-15T10:49:50;6.23;;;1.20;;
6868;SDS011;3473;42.604;23.496;2023-04-15T10:51:26;0.87;;;0.77;;
6868;SDS011;3473;42.604;23.496;2023-04-15T10:52:58;2.53;;;0.73;;
6868;SDS011;3473;42.604;23.496;2023-04-15T10:54:32;2.33;;;1.10;;
6868;SDS011;3473;42.604;23.496;2023-04-15T10:56:05;1.17;;;0.97;;
6868;SDS011;3473;42.604;23.496;2023-04-15T10:57:37;2.00;;;0.97;;
6868;SDS011;3473;42.604;23.496;2023-04-15T10:59:10;2.87;;;1.10;;
6868;SDS011;3473;42.604;23.496;2023-04-15T11:00:43;1.03;;;0.90;;
6868;SDS011;3473;42.604;23.496;2023-04-15T11:02:20;3.30;;;1.00;;
6868;SDS011;3473;42.604;23.496;2023-04-15T11:03:50;1.10;;;0.90;;
6868;SDS011;3473;42.604;23.496;2023-04-15T11:05:22;3.03;;;1.33;;
6868;SDS011;3473;42.604;23.496;2023-04-15T11:07:03;1.00;;;0.97;;
6868;SDS011;3473;42.604;23.496;2023-04-15T11:12:08;2.67;;;0.90;;
6868;SDS011;3473;42.604;23.496;2023-04-15T11:13:46;2.00;;;0.93;;
6868;SDS011;3473;42.604;23.496;2023-04-15T11:15:26;1.10;;;1.00;;
6868;SDS011;3473;42.604;23.496;2023-04-15T11:16:57;1.00;;;0.80;;
6868;SDS011;3473;42.604;23.496;2023-04-15T11:18:29;1.17;;;0.83;;
6868;SDS011;3473;42.604;23.496;2023-04-15T11:20:02;1.23;;;0.80;;
6868;SDS011;3473;42.604;23.496;2023-04-15T11:21:34;3.03;;;0.90;;
6868;SDS011;3473;42.604;23.496;2023-04-15T11:23:07;1.70;;;0.80;;
6868;SDS011;3473;42.604;23.496;2023-04-15T11:24:46;1.07;;;0.90;;
6868;SDS011;3473;42.604;23.496;2023-04-15T11:26:19;1.33;;;0.93;;
6868;SDS011;3473;42.604;23.496;2023-04-15T11:27:57;0.70;;;0.70;;
6868;SDS011;3473;42.604;23.496;2023-04-15T11:29:28;1.03;;;0.83;;
6868;SDS011;3473;42.604;23.496;2023-04-15T11:31:20;1.10;;;0.80;;
6868;SDS011;3473;42.604;23.496;2023-04-15T11:32:53;0.97;;;0.70;;
6868;SDS011;3473;42.604;23.496;2023-04-15T11:34:24;1.17;;;0.80;;
6868;SDS011;3473;42.604;23.496;2023-04-15T11:35:56;1.47;;;0.90;;
6868;SDS011;3473;42.604;23.496;2023-04-15T11:37:28;1.23;;;1.10;;
6868;SDS011;3473;42.604;23.496;2023-04-15T11:38:59;1.87;;;1.20;;
6868;SDS011;3473;42.604;23.496;2023-04-15T11:40:31;1.60;;;1.00;;
6868;SDS011;3473;42.604;23.496;2023-04-15T11:42:02;1.27;;;1.07;;
6868;SDS011;3473;42.604;23.496;2023-04-15T11:43:33;2.87;;;1.00;;
6868;SDS011;3473;42.604;23.496;2023-04-15T11:45:05;0.87;;;0.67;;
6868;SDS011;3473;42.604;23.496;2023-04-15T11:46:39;1.10;;;1.00;;
6868;SDS011;3473;42.604;23.496;2023-04-15T11:48:11;1.03;;;0.93;;
6868;SDS011;3473;42.604;23.496;2023-04-15T11:49:42;1.27;;;0.93;;
6868;SDS011;3473;42.604;23.496;2023-04-15T11:51:14;1.47;;;1.07;;
6868;SDS011;3473;42.604;23.496;2023-04-15T11:52:52;4.07;;;2.10;;
6868;SDS011;3473;42.604;23.496;2023-04-15T11:54:23;1.93;;;1.20;;
6868;SDS011;3473;42.604;23.496;2023-04-15T11:55:55;2.90;;;1.30;;
6868;SDS011;3473;42.604;23.496;2023-04-15T11:57:30;4.43;;;0.90;;
6868;SDS011;3473;42.604;23.496;2023-04-15T11:59:01;1.77;;;1.13;;
6868;SDS011;3473;42.604;23.496;2023-04-15T12:00:33;3.20;;;1.47;;
6868;SDS011;3473;42.604;23.496;2023-04-15T12:02:11;4.80;;;2.97;;
6868;SDS011;3473;42.604;23.496;2023-04-15T12:03:44;8.53;;;2.40;;
6868;SDS011;3473;42.604;23.496;2023-04-15T12:05:15;2.20;;;1.13;;
6868;SDS011;3473;42.604;23.496;2023-04-15T12:06:47;9.47;;;3.97;;
6868;SDS011;3473;42.604;23.496;2023-04-15T12:08:18;5.57;;;2.47;;
6868;SDS011;3473;42.604;23.496;2023-04-15T12:09:53;2.23;;;1.33;;
6868;SDS011;3473;42.604;23.496;2023-04-15T12:11:35;2.33;;;1.40;;
6868;SDS011;3473;42.604;23.496;2023-04-15T12:13:07;1.40;;;1.20;;
6868;SDS011;3473;42.604;23.496;2023-04-15T12:14:39;0.97;;;0.90;;
6868;SDS011;3473;42.604;23.496;2023-04-15T12:16:11;0.80;;;0.80;;
6868;SDS011;3473;42.604;23.496;2023-04-15T12:17:43;2.10;;;0.93;;
6868;SDS011;3473;42.604;23.496;2023-04-15T12:19:16;1.37;;;0.97;;
6868;SDS011;3473;42.604;23.496;2023-04-15T12:20:48;1.63;;;0.93;;
6868;SDS011;3473;42.604;23.496;2023-04-15T12:22:19;0.83;;;0.80;;
6868;SDS011;3473;42.604;23.496;2023-04-15T12:23:51;1.53;;;0.80;;
6868;SDS011;3473;42.604;23.496;2023-04-15T12:25:31;1.87;;;1.37;;
6868;SDS011;3473;42.604;23.496;2023-04-15T12:27:04;1.63;;;1.20;;
6868;SDS011;3473;42.604;23.496;2023-04-15T12:28:37;2.17;;;0.90;;
6868;SDS011;3473;42.604;23.496;2023-04-15T12:30:11;1.30;;;0.90;;
6868;SDS011;3473;42.604;23.496;2023-04-15T12:31:46;2.57;;;0.87;;
6868;SDS011;3473;42.604;23.496;2023-04-15T12:33:19;2.33;;;1.17;;
6868;SDS011;3473;42.604;23.496;2023-04-15T12:34:51;1.10;;;0.80;;
6868;SDS011;3473;42.604;23.496;2023-04-15T12:36:23;1.97;;;0.77;;
6868;SDS011;3473;42.604;23.496;2023-04-15T12:37:55;0.73;;;0.73;;
6868;SDS011;3473;42.604;23.496;2023-04-15T12:39:27;1.90;;;1.30;;
6868;SDS011;3473;42.604;23.496;2023-04-15T12:40:59;1.30;;;1.00;;
6868;SDS011;3473;42.604;23.496;2023-04-15T12:42:30;1.07;;;0.97;;
6868;SDS011;3473;42.604;23.496;2023-04-15T12:46:10;1.37;;;1.00;;
6868;SDS011;3473;42.604;23.496;2023-04-15T12:47:41;0.80;;;0.80;;
6868;SDS011;3473;42.604;23.496;2023-04-15T12:49:14;0.90;;;0.90;;
6868;SDS011;3473;42.604;23.496;2023-04-15T12:50:48;2.03;;;1.10;;
6868;SDS011;3473;42.604;23.496;2023-04-15T12:52:20;1.48;;;0.90;;
6868;SDS011;3473;42.604;23.496;2023-04-15T12:53:51;1.00;;;0.77;;
6868;SDS011;3473;42.604;23.496;2023-04-15T12:55:22;4.40;;;1.23;;
6868;SDS011;3473;42.604;23.496;2023-04-15T12:56:54;2.03;;;1.07;;
6868;SDS011;3473;42.604;23.496;2023-04-15T12:58:25;2.17;;;1.30;;
6868;SDS011;3473;42.604;23.496;2023-04-15T12:59:57;3.25;;;1.70;;
6868;SDS011;3473;42.604;23.496;2023-04-15T13:01:28;1.63;;;1.10;;
6868;SDS011;3473;42.604;23.496;2023-04-15T13:03:00;3.58;;;0.90;;
6868;SDS011;3473;42.604;23.496;2023-04-15T13:04:33;0.70;;;0.70;;
6868;SDS011;3473;42.604;23.496;2023-04-15T13:06:05;1.10;;;0.80;;
6868;SDS011;3473;42.604;23.496;2023-04-15T13:07:37;1.80;;;1.15;;
6868;SDS011;3473;42.604;23.496;2023-04-15T13:09:08;2.20;;;1.00;;
6868;SDS011;3473;42.604;23.496;2023-04-15T13:10:40;2.80;;;2.08;;
6868;SDS011;3473;42.604;23.496;2023-04-15T13:12:12;4.13;;;1.90;;
6868;SDS011;3473;42.604;23.496;2023-04-15T13:13:45;4.38;;;1.13;;
6868;SDS011;3473;42.604;23.496;2023-04-15T13:15:16;1.33;;;0.80;;
6868;SDS011;3473;42.604;23.496;2023-04-15T13:16:49;1.10;;;0.90;;
6868;SDS011;3473;42.604;23.496;2023-04-15T13:18:21;1.13;;;0.98;;
6868;SDS011;3473;42.604;23.496;2023-04-15T13:19:54;1.90;;;1.00;;
6868;SDS011;3473;42.604;23.496;2023-04-15T13:21:26;1.73;;;1.00;;
6868;SDS011;3473;42.604;23.496;2023-04-15T13:22:57;1.40;;;1.17;;
6868;SDS011;3473;42.604;23.496;2023-04-15T13:24:29;1.20;;;0.90;;
6868;SDS011;3473;42.604;23.496;2023-04-15T13:26:01;2.50;;;1.63;;
6868;SDS011;3473;42.604;23.496;2023-04-15T13:27:32;6.93;;;3.40;;
6868;SDS011;3473;42.604;23.496;2023-04-15T13:29:04;2.23;;;1.60;;
6868;SDS011;3473;42.604;23.496;2023-04-15T13:30:36;2.53;;;1.27;;
6868;SDS011;3473;42.604;23.496;2023-04-15T13:32:07;3.10;;;1.80;;
6868;SDS011;3473;42.604;23.496;2023-04-15T13:33:39;1.80;;;1.40;;
6868;SDS011;3473;42.604;23.496;2023-04-15T13:35:12;1.67;;;1.10;;
6868;SDS011;3473;42.604;23.496;2023-04-15T13:36:43;3.37;;;1.80;;
6868;SDS011;3473;42.604;23.496;2023-04-15T13:38:15;5.00;;;1.67;;
6868;SDS011;3473;42.604;23.496;2023-04-15T13:39:46;6.87;;;2.73;;
6868;SDS011;3473;42.604;23.496;2023-04-15T13:41:18;7.07;;;2.70;;
6868;SDS011;3473;42.604;23.496;2023-04-15T13:42:50;2.80;;;1.70;;
6868;SDS011;3473;42.604;23.496;2023-04-15T13:44:22;1.87;;;1.00;;
6868;SDS011;3473;42.604;23.496;2023-04-15T13:45:53;1.97;;;1.10;;
6868;SDS011;3473;42.604;23.496;2023-04-15T13:47:25;1.70;;;1.03;;
6868;SDS011;3473;42.604;23.496;2023-04-15T13:48:56;2.30;;;0.83;;
6868;SDS011;3473;42.604;23.496;2023-04-15T13:50:29;1.40;;;0.87;;
6868;SDS011;3473;42.604;23.496;2023-04-15T13:52:01;1.50;;;0.77;;
6868;SDS011;3473;42.604;23.496;2023-04-15T13:53:32;1.07;;;0.97;;
6868;SDS011;3473;42.604;23.496;2023-04-15T13:55:23;2.03;;;1.20;;
6868;SDS011;3473;42.604;23.496;2023-04-15T13:56:55;2.00;;;1.17;;
6868;SDS011;3473;42.604;23.496;2023-04-15T13:58:27;2.63;;;1.37;;
6868;SDS011;3473;42.604;23.496;2023-04-15T13:59:58;2.03;;;1.40;;
6868;SDS011;3473;42.604;23.496;2023-04-15T14:01:30;5.83;;;1.97;;
6868;SDS011;3473;42.604;23.496;2023-04-15T14:03:01;3.70;;;2.07;;
6868;SDS011;3473;42.604;23.496;2023-04-15T14:04:33;4.97;;;2.70;;
6868;SDS011;3473;42.604;23.496;2023-04-15T14:06:06;4.03;;;1.90;;
6868;SDS011;3473;42.604;23.496;2023-04-15T14:07:37;2.13;;;1.40;;
6868;SDS011;3473;42.604;23.496;2023-04-15T14:09:09;1.83;;;1.27;;
6868;SDS011;3473;42.604;23.496;2023-04-15T14:10:40;1.37;;;1.00;;
6868;SDS011;3473;42.604;23.496;2023-04-15T14:12:15;4.93;;;1.52;;
6868;SDS011;3473;42.604;23.496;2023-04-15T14:13:46;2.22;;;1.55;;
6868;SDS011;3473;42.604;23.496;2023-04-15T14:15:18;2.70;;;1.20;;
6868;SDS011;3473;42.604;23.496;2023-04-15T14:16:49;1.77;;;1.17;;
6868;SDS011;3473;42.604;23.496;2023-04-15T14:18:21;0.87;;;0.70;;
6868;SDS011;3473;42.604;23.496;2023-04-15T14:19:52;1.93;;;0.90;;
6868;SDS011;3473;42.604;23.496;2023-04-15T14:21:25;5.57;;;3.07;;
6868;SDS011;3473;42.604;23.496;2023-04-15T14:22:57;3.20;;;2.00;;
6868;SDS011;3473;42.604;23.496;2023-04-15T14:24:28;1.73;;;1.00;;
6868;SDS011;3473;42.604;23.496;2023-04-15T14:27:55;1.57;;;1.27;;
6868;SDS011;3473;42.604;23.496;2023-04-15T14:29:26;4.63;;;1.80;;
6868;SDS011;3473;42.604;23.496;2023-04-15T14:30:58;6.93;;;3.73;;
6868;SDS011;3473;42.604;23.496;2023-04-15T14:32:29;8.10;;;3.93;;
6868;SDS011;3473;42.604;23.496;2023-04-15T14:34:01;4.53;;;1.80;;
6868;SDS011;3473;42.604;23.496;2023-04-15T14:35:32;2.03;;;1.33;;
6868;SDS011;3473;42.604;23.496;2023-04-15T14:37:05;3.33;;;1.37;;
6868;SDS011;3473;42.604;23.496;2023-04-15T14:38:37;0.90;;;0.80;;
6868;SDS011;3473;42.604;23.496;2023-04-15T14:40:09;1.70;;;1.00;;
6868;SDS011;3473;42.604;23.496;2023-04-15T14:41:40;3.53;;;1.47;;
6868;SDS011;3473;42.604;23.496;2023-04-15T14:43:11;3.30;;;1.67;;
6868;SDS011;3473;42.604;23.496;2023-04-15T14:44:42;2.10;;;1.60;;
6868;SDS011;3473;42.604;23.496;2023-04-15T14:46:14;4.53;;;1.60;;
6868;SDS011;3473;42.604;23.496;2023-04-15T14:47:46;5.30;;;3.13;;
6868;SDS011;3473;42.604;23.496;2023-04-15T14:49:17;15.23;;;7.60;;
6868;SDS011;3473;42.604;23.496;2023-04-15T14:52:40;49.13;;;22.33;;
6868;SDS011;3473;42.604;23.496;2023-04-15T14:54:11;33.80;;;15.90;;
6868;SDS011;3473;42.604;23.496;2023-04-15T14:55:43;39.40;;;17.57;;
6868;SDS011;3473;42.604;23.496;2023-04-15T14:57:15;12.60;;;6.60;;
6868;SDS011;3473;42.604;23.496;2023-04-15T14:58:46;3.97;;;2.20;;
6868;SDS011;3473;42.604;23.496;2023-04-15T15:00:18;3.70;;;2.10;;
6868;SDS011;3473;42.604;23.496;2023-04-15T15:01:49;4.00;;;2.80;;
6868;SDS011;3473;42.604;23.496;2023-04-15T15:03:22;2.97;;;2.20;;
6868;SDS011;3473;42.604;23.496;2023-04-15T15:04:53;5.23;;;3.63;;
6868;SDS011;3473;42.604;23.496;2023-04-15T15:06:25;4.20;;;2.63;;
6868;SDS011;3473;42.604;23.496;2023-04-15T15:07:58;4.40;;;2.97;;
6868;SDS011;3473;42.604;23.496;2023-04-15T15:09:29;2.67;;;2.13;;
6868;SDS011;3473;42.604;23.496;2023-04-15T15:11:01;3.60;;;2.43;;
6868;SDS011;3473;42.604;23.496;2023-04-15T15:12:32;4.77;;;2.43;;
6868;SDS011;3473;42.604;23.496;2023-04-15T15:14:04;4.10;;;2.73;;
6868;SDS011;3473;42.604;23.496;2023-04-15T15:15:36;3.80;;;2.37;;
6868;SDS011;3473;42.604;23.496;2023-04-15T15:17:06;4.40;;;2.13;;
6868;SDS011;3473;42.604;23.496;2023-04-15T15:18:38;4.90;;;2.17;;
6868;SDS011;3473;42.604;23.496;2023-04-15T15:20:10;3.47;;;2.27;;
6868;SDS011;3473;42.604;23.496;2023-04-15T15:21:42;18.07;;;8.47;;
6868;SDS011;3473;42.604;23.496;2023-04-15T15:23:15;11.13;;;5.47;;
6868;SDS011;3473;42.604;23.496;2023-04-15T15:24:46;16.40;;;8.17;;
6868;SDS011;3473;42.604;23.496;2023-04-15T15:26:18;14.67;;;8.67;;
6868;SDS011;3473;42.604;23.496;2023-04-15T15:27:49;5.53;;;3.23;;
6868;SDS011;3473;42.604;23.496;2023-04-15T15:29:21;4.67;;;2.50;;